Time,TemperatureF,DewpointF,PressureIn,WindDirection,WindDirectionDegrees,WindSpeedMPH,WindSpeedGustMPH,Humidity,HourlyPrecipIn,Conditions,Clouds,dailyrainin,SoftwareType,DateUTC
2013-02-27 00:06:00,9.1,4.0,30.44,ENE,73,0.0,1.0,81,0.00,,,0.02,weatherlink.com 1.10,2013-02-27 07:06:00,
2013-02-27 00:22:00,10.4,7.0,30.45,ENE,73,0.0,0.0,84,0.00,,,0.02,weatherlink.com 1.10,2013-02-27 07:22:00,
2013-02-27 00:37:00,11.4,7.0,30.45,ENE,73,0.0,0.0,83,0.00,,,0.00,weatherlink.com 1.10,2013-02-27 07:37:00,
2013-02-27 00:52:00,8.1,3.0,30.45,ENE,74,2.0,3.0,81,0.00,,,0.00,weatherlink.com 1.10,2013-02-27 07:52:00,
2013-02-27 01:07:00,7.5,3.0,30.46,ENE,74,1.0,3.0,81,0.00,,,0.00,weatherlink.com 1.10,2013-02-27 08:07:00,
2013-02-27 01:22:00,8.2,4.0,30.46,ENE,74,0.0,2.0,82,0.00,,,0.00,weatherlink.com 1.10,2013-02-27 08:22:00,
2013-02-27 01:37:00,8.3,4.0,30.47,ENE,76,1.0,2.0,81,0.01,,,0.01,weatherlink.com 1.10,2013-02-27 08:37:00,
2013-02-27 01:52:00,7.4,3.0,30.48,ENE,76,0.0,2.0,81,0.01,,,0.01,weatherlink.com 1.10,2013-02-27 08:52:00,
2013-02-27 02:07:00,6.5,2.0,30.48,ENE,78,3.0,3.0,81,0.01,,,0.01,weatherlink.com 1.10,2013-02-27 09:07:00,
2013-02-27 02:22:00,5.5,1.0,30.48,East,79,2.0,4.0,81,0.01,,,0.01,weatherlink.com 1.10,2013-02-27 09:22:00,
2013-02-27 02:37:00,5.3,1.0,30.48,East,79,1.0,3.0,81,0.00,,,0.01,weatherlink.com 1.10,2013-02-27 09:37:00,
2013-02-27 02:52:00,5.8,1.0,30.49,East,80,2.0,4.0,81,0.00,,,0.01,weatherlink.com 1.10,2013-02-27 09:52:00,
2013-02-27 03:07:00,7.4,3.0,30.50,East,80,0.0,0.0,83,0.00,,,0.01,weatherlink.com 1.10,2013-02-27 10:07:00,
2013-02-27 03:22:00,7.4,3.0,30.50,East,80,0.0,0.0,82,0.00,,,0.01,weatherlink.com 1.10,2013-02-27 10:22:00,
2013-02-27 03:37:00,5.8,1.0,30.50,East,80,0.0,0.0,81,0.00,,,0.01,weatherlink.com 1.10,2013-02-27 10:37:00,
2013-02-27 03:52:00,5.0,1.0,30.50,East,80,2.0,2.0,83,0.00,,,0.01,weatherlink.com 1.10,2013-02-27 10:52:00,
2013-02-27 04:07:00,4.9,1.0,30.51,ENE,73,1.0,3.0,83,0.00,,,0.01,weatherlink.com 1.10,2013-02-27 11:07:00,
2013-02-27 04:22:00,4.7,0.0,30.52,ENE,74,1.0,2.0,82,0.00,,,0.01,weatherlink.com 1.10,2013-02-27 11:22:00,
2013-02-27 04:38:00,4.8,0.0,30.52,ENE,77,1.0,3.0,81,0.00,,,0.01,weatherlink.com 1.10,2013-02-27 11:38:00,
2013-02-27 04:52:00,4.7,0.0,30.53,ENE,75,2.0,3.0,82,0.00,,,0.01,weatherlink.com 1.10,2013-02-27 11:52:00,
2013-02-27 05:07:00,4.7,1.0,30.54,ENE,75,0.0,0.0,83,0.00,,,0.01,weatherlink.com 1.10,2013-02-27 12:07:00,
2013-02-27 05:22:00,4.2,0.0,30.54,ENE,75,0.0,0.0,81,0.00,,,0.01,weatherlink.com 1.10,2013-02-27 12:22:00,
2013-02-27 05:37:00,3.6,-1.0,30.54,ENE,71,1.0,3.0,81,0.00,,,0.01,weatherlink.com 1.10,2013-02-27 12:37:00,
2013-02-27 05:52:00,3.1,-2.0,30.55,ENE,70,0.0,3.0,81,0.00,,,0.01,weatherlink.com 1.10,2013-02-27 12:52:00,
2013-02-27 06:07:00,3.3,-1.0,30.56,ENE,72,0.0,0.0,81,0.00,,,0.01,weatherlink.com 1.10,2013-02-27 13:07:00,
2013-02-27 06:23:00,2.8,-2.0,30.57,ENE,76,0.0,0.0,80,0.00,,,0.01,weatherlink.com 1.10,2013-02-27 13:23:00,
2013-02-27 06:38:00,2.8,-2.0,30.58,ENE,78,0.0,2.0,80,0.00,,,0.01,weatherlink.com 1.10,2013-02-27 13:38:00,
2013-02-27 06:53:00,3.4,0.0,30.59,ENE,78,0.0,0.0,84,0.00,,,0.01,weatherlink.com 1.10,2013-02-27 13:53:00,
2013-02-27 07:08:00,3.8,-1.0,30.59,ENE,77,0.0,2.0,82,0.00,,,0.01,weatherlink.com 1.10,2013-02-27 14:08:00,
2013-02-27 07:23:00,2.8,-2.0,30.60,ENE,68,3.0,3.0,81,0.00,,,0.01,weatherlink.com 1.10,2013-02-27 14:23:00,
2013-02-27 07:38:00,3.9,-1.0,30.61,ENE,66,0.0,3.0,81,0.00,,,0.01,weatherlink.com 1.10,2013-02-27 14:38:00,
2013-02-27 07:53:00,6.6,2.0,30.62,ENE,63,0.0,0.0,82,0.00,,,0.01,weatherlink.com 1.10,2013-02-27 14:53:00,
2013-02-27 08:08:00,8.1,3.0,30.62,NE,46,0.0,0.0,81,0.00,,,0.01,weatherlink.com 1.10,2013-02-27 15:08:00,
2013-02-27 08:23:00,9.5,4.0,30.62,NE,45,0.0,0.0,79,0.00,,,0.01,weatherlink.com 1.10,2013-02-27 15:23:00,
2013-02-27 08:38:00,11.5,5.0,30.63,NE,44,0.0,0.0,76,0.00,,,0.01,weatherlink.com 1.10,2013-02-27 15:38:00,
2013-02-27 08:53:00,13.2,6.0,30.63,NE,44,0.0,0.0,73,0.00,,,0.01,weatherlink.com 1.10,2013-02-27 15:53:00,
2013-02-27 09:08:00,15.7,8.0,30.64,NE,44,0.0,0.0,70,0.00,,,0.01,weatherlink.com 1.10,2013-02-27 16:08:00,
2013-02-27 09:23:00,16.1,7.0,30.63,NE,44,0.0,0.0,67,0.00,,,0.01,weatherlink.com 1.10,2013-02-27 16:23:00,
2013-02-27 09:38:00,18.6,8.0,30.63,NE,44,0.0,0.0,63,0.00,,,0.01,weatherlink.com 1.10,2013-02-27 16:38:00,
2013-02-27 09:54:00,18.0,8.0,30.63,NE,44,0.0,0.0,64,0.00,,,0.01,weatherlink.com 1.10,2013-02-27 16:54:00,
2013-02-27 10:09:00,19.1,8.0,30.63,NE,44,0.0,0.0,62,0.00,,,0.01,weatherlink.com 1.10,2013-02-27 17:09:00,
2013-02-27 10:24:00,20.4,8.0,30.62,NE,44,0.0,0.0,60,0.00,,,0.01,weatherlink.com 1.10,2013-02-27 17:24:00,
2013-02-27 10:39:00,20.7,9.0,30.62,NE,44,0.0,0.0,60,0.00,,,0.01,weatherlink.com 1.10,2013-02-27 17:39:00,
2013-02-27 10:54:00,21.7,9.0,30.62,NE,44,0.0,0.0,59,0.00,,,0.01,weatherlink.com 1.10,2013-02-27 17:54:00,
2013-02-27 11:09:00,21.3,9.0,30.62,NE,39,0.0,0.0,59,0.00,,,0.01,weatherlink.com 1.10,2013-02-27 18:09:00,
2013-02-27 11:24:00,20.8,8.0,30.62,NNE,13,0.0,0.0,59,0.00,,,0.01,weatherlink.com 1.10,2013-02-27 18:24:00,
2013-02-27 11:39:00,21.8,10.0,30.62,NNE,13,0.0,0.0,60,0.00,,,0.01,weatherlink.com 1.10,2013-02-27 18:39:00,
2013-02-27 11:54:00,23.4,8.0,30.62,SSW,193,0.0,3.0,53,0.00,,,0.01,weatherlink.com 1.10,2013-02-27 18:54:00,
2013-02-27 12:09:00,23.5,9.0,30.61,SSW,210,0.0,4.0,53,0.00,,,0.01,weatherlink.com 1.10,2013-02-27 19:09:00,
2013-02-27 12:24:00,22.9,8.0,30.61,ENE,61,0.0,3.0,53,0.00,,,0.01,weatherlink.com 1.10,2013-02-27 19:24:00,
2013-02-27 12:39:00,25.0,9.0,30.60,ENE,63,0.0,0.0,51,0.00,,,0.01,weatherlink.com 1.10,2013-02-27 19:39:00,
2013-02-27 12:54:00,26.4,9.0,30.60,ENE,58,0.0,0.0,48,0.00,,,0.01,weatherlink.com 1.10,2013-02-27 19:54:00,
2013-02-27 13:09:00,26.3,9.0,30.59,East,94,0.0,3.0,49,0.00,,,0.01,weatherlink.com 1.10,2013-02-27 20:09:00,
2013-02-27 13:25:00,25.7,9.0,30.59,NNE,32,1.0,3.0,50,0.01,,,0.02,weatherlink.com 1.10,2013-02-27 20:25:00,
2013-02-27 13:40:00,24.9,9.0,30.58,North,1,0.0,6.0,50,0.01,,,0.02,weatherlink.com 1.10,2013-02-27 20:40:00,
2013-02-27 13:55:00,26.9,9.0,30.57,NNW,345,0.0,4.0,47,0.01,,,0.02,weatherlink.com 1.10,2013-02-27 20:55:00,
2013-02-27 14:10:00,26.5,8.0,30.57,North,359,0.0,3.0,45,0.01,,,0.02,weatherlink.com 1.10,2013-02-27 21:10:00,
2013-02-27 14:25:00,25.3,8.0,30.57,NNW,346,0.0,6.0,47,0.00,,,0.02,weatherlink.com 1.10,2013-02-27 21:25:00,
2013-02-27 14:44:00,25.8,3.0,30.52,WSW,239,6.0,9.0,38,0.00,,,0.00,weatherlink.com 1.10,2013-02-27 21:44:00,
2013-02-27 14:59:00,26.2,3.0,30.53,West,267,4.0,10.0,37,0.00,,,0.00,weatherlink.com 1.10,2013-02-27 21:59:00,
2013-02-27 15:14:00,26.6,4.0,30.53,WSW,250,4.0,10.0,38,0.00,,,0.00,weatherlink.com 1.10,2013-02-27 22:14:00,
2013-02-27 15:29:00,26.1,5.0,30.53,SW,234,4.0,11.0,40,0.00,,,0.00,weatherlink.com 1.10,2013-02-27 22:29:00,
2013-02-27 15:44:00,27.1,6.0,30.54,West,281,0.0,5.0,41,0.00,,,0.00,weatherlink.com 1.10,2013-02-27 22:44:00,
2013-02-27 16:00:00,26.2,4.0,30.54,West,259,0.0,9.0,39,0.00,,,0.00,weatherlink.com 1.10,2013-02-27 23:00:00,
2013-02-27 16:15:00,26.3,7.0,30.55,SW,236,2.0,8.0,44,0.00,,,0.00,weatherlink.com 1.10,2013-02-27 23:15:00,
2013-02-27 16:30:00,25.6,7.0,30.55,West,278,13.0,13.0,46,0.00,,,0.00,weatherlink.com 1.10,2013-02-27 23:30:00,
2013-02-27 16:45:00,24.8,7.0,30.56,West,278,7.0,13.0,47,0.00,,,0.00,weatherlink.com 1.10,2013-02-27 23:45:00,
2013-02-27 17:00:00,24.7,7.0,30.56,WNW,301,8.0,13.0,47,0.00,,,0.00,weatherlink.com 1.10,2013-02-28 00:00:00,
2013-02-27 17:15:00,23.7,7.0,30.57,West,280,6.0,14.0,49,0.00,,,0.00,weatherlink.com 1.10,2013-02-28 00:15:00,
2013-02-27 17:30:00,22.8,6.0,30.58,West,276,6.0,13.0,49,0.00,,,0.00,weatherlink.com 1.10,2013-02-28 00:30:00,
2013-02-27 17:45:00,21.7,6.0,30.58,WNW,293,6.0,12.0,50,0.00,,,0.00,weatherlink.com 1.10,2013-02-28 00:45:00,
2013-02-27 18:00:00,20.6,5.0,30.58,WNW,294,7.0,9.0,51,0.00,,,0.00,weatherlink.com 1.10,2013-02-28 01:00:00,
2013-02-27 18:15:00,20.3,5.0,30.59,WNW,293,4.0,11.0,52,0.00,,,0.00,weatherlink.com 1.10,2013-02-28 01:15:00,
2013-02-27 18:30:00,20.1,5.0,30.59,WNW,285,0.0,7.0,52,0.00,,,0.00,weatherlink.com 1.10,2013-02-28 01:30:00,
2013-02-27 18:45:00,19.2,4.0,30.60,WNW,285,0.0,0.0,52,0.00,,,0.00,weatherlink.com 1.10,2013-02-28 01:45:00,
2013-02-27 19:00:00,18.0,4.0,30.61,NW,305,0.0,2.0,54,0.00,,,0.00,weatherlink.com 1.10,2013-02-28 02:00:00,
2013-02-27 19:16:00,17.9,4.0,30.61,NW,305,0.0,2.0,55,0.00,,,0.00,weatherlink.com 1.10,2013-02-28 02:16:00,
2013-02-27 19:31:00,17.3,4.0,30.61,NW,305,0.0,0.0,56,0.00,,,0.00,weatherlink.com 1.10,2013-02-28 02:31:00,
2013-02-27 19:46:00,15.1,3.0,30.61,ENE,58,3.0,4.0,59,0.00,,,0.00,weatherlink.com 1.10,2013-02-28 02:46:00,
2013-02-27 20:01:00,13.0,3.0,30.62,ENE,75,1.0,5.0,65,0.00,,,0.00,weatherlink.com 1.10,2013-02-28 03:01:00,
2013-02-27 20:16:00,12.7,3.0,30.62,ENE,75,2.0,3.0,66,0.00,,,0.00,weatherlink.com 1.10,2013-02-28 03:16:00,
2013-02-27 20:31:00,11.6,3.0,30.62,East,80,3.0,4.0,67,0.00,,,0.00,weatherlink.com 1.10,2013-02-28 03:31:00,
2013-02-27 20:46:00,11.5,2.0,30.62,East,84,3.0,5.0,67,0.00,,,0.00,weatherlink.com 1.10,2013-02-28 03:46:00,
2013-02-27 21:01:00,10.8,2.0,30.62,East,88,3.0,4.0,67,0.00,,,0.00,weatherlink.com 1.10,2013-02-28 04:01:00,
2013-02-27 21:20:00,10.9,2.0,30.63,East,87,1.0,3.0,66,0.00,,,0.00,weatherlink.com 1.10,2013-02-28 04:20:00,
2013-02-27 21:31:00,10.3,1.0,30.64,East,86,2.0,4.0,66,0.00,,,0.00,weatherlink.com 1.10,2013-02-28 04:31:00,
2013-02-27 21:46:00,9.9,1.0,30.63,East,82,3.0,4.0,67,0.00,,,0.00,weatherlink.com 1.10,2013-02-28 04:46:00,
2013-02-27 22:01:00,9.7,0.0,30.64,East,81,2.0,4.0,66,0.00,,,0.00,weatherlink.com 1.10,2013-02-28 05:01:00,
2013-02-27 22:16:00,9.5,0.0,30.64,East,83,2.0,4.0,66,0.00,,,0.00,weatherlink.com 1.10,2013-02-28 05:16:00,
2013-02-27 22:31:00,9.3,-1.0,30.64,East,82,0.0,0.0,64,0.00,,,0.00,weatherlink.com 1.10,2013-02-28 05:31:00,
2013-02-27 22:47:00,8.7,-1.0,30.65,East,82,3.0,4.0,65,0.00,,,0.00,weatherlink.com 1.10,2013-02-28 05:47:00,
2013-02-27 23:02:00,8.1,-2.0,30.65,East,86,4.0,6.0,65,0.00,,,0.00,weatherlink.com 1.10,2013-02-28 06:02:00,
2013-02-27 23:17:00,7.8,-1.0,30.64,East,85,3.0,6.0,66,0.00,,,0.00,weatherlink.com 1.10,2013-02-28 06:17:00,
2013-02-27 23:32:00,8.1,-2.0,30.64,East,82,4.0,5.0,64,0.00,,,0.00,weatherlink.com 1.10,2013-02-28 06:32:00,
2013-02-27 23:47:00,7.8,-2.0,30.64,East,82,4.0,6.0,65,0.00,,,0.00,weatherlink.com 1.10,2013-02-28 06:47:00,